sensor_id;sensor_type;location;lat;lon;timestamp;P1;durP1;ratioP1;P2;durP2;ratioP2
74223;SDS011;62585;49.706;18.216;2022-11-15T00:01:33;0.80;;;0.70;;
74223;SDS011;62585;49.706;18.216;2022-11-15T00:03:59;0.03;;;0.03;;
74223;SDS011;62585;49.706;18.216;2022-11-15T00:06:25;0.00;;;0.00;;
74223;SDS011;62585;49.706;18.216;2022-11-15T00:08:50;0.10;;;0.10;;
74223;SDS011;62585;49.706;18.216;2022-11-15T00:11:16;0.73;;;0.73;;
74223;SDS011;62585;49.706;18.216;2022-11-15T00:13:42;7.85;;;7.18;;
74223;SDS011;62585;49.706;18.216;2022-11-15T00:16:08;2.08;;;1.98;;
74223;SDS011;62585;49.706;18.216;2022-11-15T00:18:34;0.10;;;0.10;;
74223;SDS011;62585;49.706;18.216;2022-11-15T00:21:04;0.00;;;0.00;;
74223;SDS011;62585;49.706;18.216;2022-11-15T00:23:32;0.20;;;0.20;;
74223;SDS011;62585;49.706;18.216;2022-11-15T00:25:58;0.55;;;0.55;;
74223;SDS011;62585;49.706;18.216;2022-11-15T00:28:24;1.10;;;1.00;;
74223;SDS011;62585;49.706;18.216;2022-11-15T00:30:51;1.75;;;1.35;;
74223;SDS011;62585;49.706;18.216;2022-11-15T00:33:16;9.23;;;3.72;;
74223;SDS011;62585;49.706;18.216;2022-11-15T00:35:42;0.30;;;0.30;;
74223;SDS011;62585;49.706;18.216;2022-11-15T00:38:08;0.10;;;0.10;;
74223;SDS011;62585;49.706;18.216;2022-11-15T00:40:34;2.83;;;2.20;;
74223;SDS011;62585;49.706;18.216;2022-11-15T00:43:00;1.90;;;1.77;;
74223;SDS011;62585;49.706;18.216;2022-11-15T00:45:26;0.00;;;0.00;;
74223;SDS011;62585;49.706;18.216;2022-11-15T00:47:52;1.65;;;0.82;;
74223;SDS011;62585;49.706;18.216;2022-11-15T00:50:18;2.47;;;2.25;;
74223;SDS011;62585;49.706;18.216;2022-11-15T00:52:44;7.97;;;7.72;;
74223;SDS011;62585;49.706;18.216;2022-11-15T00:55:14;0.90;;;0.90;;
74223;SDS011;62585;49.706;18.216;2022-11-15T00:57:43;0.43;;;0.40;;
74223;SDS011;62585;49.706;18.216;2022-11-15T01:00:10;4.43;;;4.28;;
74223;SDS011;62585;49.706;18.216;2022-11-15T01:02:36;0.00;;;0.00;;
74223;SDS011;62585;49.706;18.216;2022-11-15T01:05:02;0.10;;;0.10;;
74223;SDS011;62585;49.706;18.216;2022-11-15T01:07:28;0.10;;;0.10;;
74223;SDS011;62585;49.706;18.216;2022-11-15T01:09:54;0.10;;;0.10;;
74223;SDS011;62585;49.706;18.216;2022-11-15T01:12:20;0.63;;;0.63;;
74223;SDS011;62585;49.706;18.216;2022-11-15T01:14:45;0.10;;;0.10;;
74223;SDS011;62585;49.706;18.216;2022-11-15T01:17:11;0.65;;;0.65;;
74223;SDS011;62585;49.706;18.216;2022-11-15T01:19:37;0.45;;;0.45;;
74223;SDS011;62585;49.706;18.216;2022-11-15T01:22:02;2.53;;;1.90;;
74223;SDS011;62585;49.706;18.216;2022-11-15T01:24:28;0.10;;;0.10;;
74223;SDS011;62585;49.706;18.216;2022-11-15T01:26:54;0.20;;;0.20;;
74223;SDS011;62585;49.706;18.216;2022-11-15T01:29:20;0.20;;;0.20;;
74223;SDS011;62585;49.706;18.216;2022-11-15T01:31:45;0.00;;;0.00;;
74223;SDS011;62585;49.706;18.216;2022-11-15T01:34:11;0.10;;;0.10;;
74223;SDS011;62585;49.706;18.216;2022-11-15T01:36:37;0.10;;;0.10;;
74223;SDS011;62585;49.706;18.216;2022-11-15T01:39:03;0.10;;;0.10;;
74223;SDS011;62585;49.706;18.216;2022-11-15T01:41:30;0.20;;;0.20;;
74223;SDS011;62585;49.706;18.216;2022-11-15T01:43:58;0.10;;;0.10;;
74223;SDS011;62585;49.706;18.216;2022-11-15T01:49:55;0.00;;;0.00;;
74223;SDS011;62585;49.706;18.216;2022-11-15T01:52:22;0.10;;;0.10;;
74223;SDS011;62585;49.706;18.216;2022-11-15T01:54:51;0.10;;;0.10;;
74223;SDS011;62585;49.706;18.216;2022-11-15T01:57:21;0.08;;;0.08;;
74223;SDS011;62585;49.706;18.216;2022-11-15T01:59:47;0.00;;;0.00;;
74223;SDS011;62585;49.706;18.216;2022-11-15T02:02:13;0.00;;;0.00;;
74223;SDS011;62585;49.706;18.216;2022-11-15T02:04:43;0.05;;;0.05;;
74223;SDS011;62585;49.706;18.216;2022-11-15T02:07:11;0.05;;;0.05;;
74223;SDS011;62585;49.706;18.216;2022-11-15T02:09:40;1.52;;;1.42;;
74223;SDS011;62585;49.706;18.216;2022-11-15T02:12:06;0.05;;;0.05;;
74223;SDS011;62585;49.706;18.216;2022-11-15T02:14:34;0.00;;;0.00;;
74223;SDS011;62585;49.706;18.216;2022-11-15T02:17:11;0.10;;;0.10;;
74223;SDS011;62585;49.706;18.216;2022-11-15T02:23:04;0.00;;;0.00;;
74223;SDS011;62585;49.706;18.216;2022-11-15T02:32:03;0.35;;;0.35;;
74223;SDS011;62585;49.706;18.216;2022-11-15T02:42:54;3.30;;;3.00;;
74223;SDS011;62585;49.706;18.216;2022-11-15T02:45:43;0.20;;;0.20;;
74223;SDS011;62585;49.706;18.216;2022-11-15T02:48:13;5.80;;;5.50;;
74223;SDS011;62585;49.706;18.216;2022-11-15T02:53:08;0.10;;;0.10;;
74223;SDS011;62585;49.706;18.216;2022-11-15T02:55:35;0.00;;;0.00;;
74223;SDS011;62585;49.706;18.216;2022-11-15T02:58:31;1.23;;;1.15;;
74223;SDS011;62585;49.706;18.216;2022-11-15T03:09:02;0.00;;;0.00;;
74223;SDS011;62585;49.706;18.216;2022-11-15T03:11:29;1.95;;;1.50;;
74223;SDS011;62585;49.706;18.216;2022-11-15T03:19:35;2.75;;;2.55;;
74223;SDS011;62585;49.706;18.216;2022-11-15T03:22:02;1.75;;;1.70;;
74223;SDS011;62585;49.706;18.216;2022-11-15T03:24:31;0.35;;;0.35;;
74223;SDS011;62585;49.706;18.216;2022-11-15T03:27:00;8.70;;;2.28;;
74223;SDS011;62585;49.706;18.216;2022-11-15T03:29:32;3.20;;;3.00;;
74223;SDS011;62585;49.706;18.216;2022-11-15T03:32:06;2.92;;;2.30;;
74223;SDS011;62585;49.706;18.216;2022-11-15T03:34:42;2.65;;;1.85;;
74223;SDS011;62585;49.706;18.216;2022-11-15T03:37:10;4.47;;;2.88;;
74223;SDS011;62585;49.706;18.216;2022-11-15T03:39:38;0.22;;;0.22;;
74223;SDS011;62585;49.706;18.216;2022-11-15T03:47:41;2.30;;;2.10;;
74223;SDS011;62585;49.706;18.216;2022-11-15T03:50:13;0.00;;;0.00;;
74223;SDS011;62585;49.706;18.216;2022-11-15T03:52:42;0.00;;;0.00;;
74223;SDS011;62585;49.706;18.216;2022-11-15T03:55:11;0.10;;;0.10;;
74223;SDS011;62585;49.706;18.216;2022-11-15T03:57:40;1.38;;;1.35;;
74223;SDS011;62585;49.706;18.216;2022-11-15T04:00:06;0.00;;;0.00;;
74223;SDS011;62585;49.706;18.216;2022-11-15T04:02:32;0.43;;;0.43;;
74223;SDS011;62585;49.706;18.216;2022-11-15T04:04:58;1.08;;;1.08;;
74223;SDS011;62585;49.706;18.216;2022-11-15T04:07:24;0.00;;;0.00;;
74223;SDS011;62585;49.706;18.216;2022-11-15T04:09:49;2.05;;;1.00;;
74223;SDS011;62585;49.706;18.216;2022-11-15T04:12:27;1.25;;;1.25;;
74223;SDS011;62585;49.706;18.216;2022-11-15T04:15:15;0.00;;;0.00;;
74223;SDS011;62585;49.706;18.216;2022-11-15T04:17:53;1.73;;;1.60;;
74223;SDS011;62585;49.706;18.216;2022-11-15T04:20:20;0.10;;;0.10;;
74223;SDS011;62585;49.706;18.216;2022-11-15T04:23:19;2.63;;;2.00;;
74223;SDS011;62585;49.706;18.216;2022-11-15T04:26:06;0.00;;;0.00;;
74223;SDS011;62585;49.706;18.216;2022-11-15T04:28:35;0.00;;;0.00;;
74223;SDS011;62585;49.706;18.216;2022-11-15T04:31:21;4.60;;;4.15;;
74223;SDS011;62585;49.706;18.216;2022-11-15T04:33:46;0.10;;;0.10;;
74223;SDS011;62585;49.706;18.216;2022-11-15T04:36:12;0.10;;;0.10;;
74223;SDS011;62585;49.706;18.216;2022-11-15T04:38:56;0.10;;;0.10;;
74223;SDS011;62585;49.706;18.216;2022-11-15T04:41:22;4.65;;;4.40;;
74223;SDS011;62585;49.706;18.216;2022-11-15T04:43:48;0.08;;;0.08;;
74223;SDS011;62585;49.706;18.216;2022-11-15T04:46:14;0.30;;;0.30;;
74223;SDS011;62585;49.706;18.216;2022-11-15T04:48:39;0.10;;;0.10;;
74223;SDS011;62585;49.706;18.216;2022-11-15T04:51:05;0.10;;;0.10;;
74223;SDS011;62585;49.706;18.216;2022-11-15T04:53:31;0.08;;;0.08;;
74223;SDS011;62585;49.706;18.216;2022-11-15T04:55:57;0.10;;;0.10;;
74223;SDS011;62585;49.706;18.216;2022-11-15T04:58:22;0.10;;;0.10;;
74223;SDS011;62585;49.706;18.216;2022-11-15T05:00:48;5.05;;;0.65;;
74223;SDS011;62585;49.706;18.216;2022-11-15T05:03:14;2.22;;;2.08;;
74223;SDS011;62585;49.706;18.216;2022-11-15T05:05:58;0.40;;;0.38;;
74223;SDS011;62585;49.706;18.216;2022-11-15T05:08:24;0.00;;;0.00;;
74223;SDS011;62585;49.706;18.216;2022-11-15T05:10:51;0.00;;;0.00;;
74223;SDS011;62585;49.706;18.216;2022-11-15T05:13:16;0.10;;;0.10;;
74223;SDS011;62585;49.706;18.216;2022-11-15T05:15:42;0.55;;;0.55;;
74223;SDS011;62585;49.706;18.216;2022-11-15T05:18:08;0.00;;;0.00;;
74223;SDS011;62585;49.706;18.216;2022-11-15T05:20:34;0.35;;;0.35;;
74223;SDS011;62585;49.706;18.216;2022-11-15T05:23:00;0.00;;;0.00;;
74223;SDS011;62585;49.706;18.216;2022-11-15T05:25:26;0.00;;;0.00;;
74223;SDS011;62585;49.706;18.216;2022-11-15T05:27:52;0.20;;;0.20;;
74223;SDS011;62585;49.706;18.216;2022-11-15T05:30:17;0.00;;;0.00;;
74223;SDS011;62585;49.706;18.216;2022-11-15T05:32:43;0.00;;;0.00;;
74223;SDS011;62585;49.706;18.216;2022-11-15T05:35:12;0.05;;;0.05;;
74223;SDS011;62585;49.706;18.216;2022-11-15T05:37:43;0.00;;;0.00;;
74223;SDS011;62585;49.706;18.216;2022-11-15T05:40:09;3.42;;;3.33;;
74223;SDS011;62585;49.706;18.216;2022-11-15T05:42:35;0.00;;;0.00;;
74223;SDS011;62585;49.706;18.216;2022-11-15T05:45:02;0.10;;;0.10;;
74223;SDS011;62585;49.706;18.216;2022-11-15T05:47:29;0.00;;;0.00;;
74223;SDS011;62585;49.706;18.216;2022-11-15T05:49:56;0.00;;;0.00;;
74223;SDS011;62585;49.706;18.216;2022-11-15T05:52:24;0.45;;;0.45;;
74223;SDS011;62585;49.706;18.216;2022-11-15T05:54:53;0.00;;;0.00;;
74223;SDS011;62585;49.706;18.216;2022-11-15T05:57:20;0.00;;;0.00;;
74223;SDS011;62585;49.706;18.216;2022-11-15T05:59:46;0.00;;;0.00;;
74223;SDS011;62585;49.706;18.216;2022-11-15T06:02:12;0.43;;;0.43;;
74223;SDS011;62585;49.706;18.216;2022-11-15T06:04:38;0.00;;;0.00;;
74223;SDS011;62585;49.706;18.216;2022-11-15T06:07:04;7.43;;;4.18;;
74223;SDS011;62585;49.706;18.216;2022-11-15T06:09:30;0.50;;;0.50;;
74223;SDS011;62585;49.706;18.216;2022-11-15T06:11:55;0.75;;;0.75;;
74223;SDS011;62585;49.706;18.216;2022-11-15T06:14:21;0.00;;;0.00;;
74223;SDS011;62585;49.706;18.216;2022-11-15T06:16:48;0.47;;;0.47;;
74223;SDS011;62585;49.706;18.216;2022-11-15T06:19:14;0.10;;;0.10;;
74223;SDS011;62585;49.706;18.216;2022-11-15T06:21:39;0.00;;;0.00;;
74223;SDS011;62585;49.706;18.216;2022-11-15T06:24:05;0.00;;;0.00;;
74223;SDS011;62585;49.706;18.216;2022-11-15T06:26:31;0.68;;;0.68;;
74223;SDS011;62585;49.706;18.216;2022-11-15T06:28:57;0.00;;;0.00;;
74223;SDS011;62585;49.706;18.216;2022-11-15T06:31:23;1.45;;;1.02;;
74223;SDS011;62585;49.706;18.216;2022-11-15T06:33:49;2.75;;;2.55;;
74223;SDS011;62585;49.706;18.216;2022-11-15T06:36:14;0.00;;;0.00;;
74223;SDS011;62585;49.706;18.216;2022-11-15T06:38:42;0.00;;;0.00;;
74223;SDS011;62585;49.706;18.216;2022-11-15T06:41:09;0.00;;;0.00;;
74223;SDS011;62585;49.706;18.216;2022-11-15T06:43:37;0.00;;;0.00;;
74223;SDS011;62585;49.706;18.216;2022-11-15T06:46:04;0.10;;;0.10;;
74223;SDS011;62585;49.706;18.216;2022-11-15T06:48:31;0.20;;;0.20;;
74223;SDS011;62585;49.706;18.216;2022-11-15T06:50:57;0.10;;;0.10;;
74223;SDS011;62585;49.706;18.216;2022-11-15T06:53:25;0.00;;;0.00;;
74223;SDS011;62585;49.706;18.216;2022-11-15T06:55:51;0.35;;;0.35;;
74223;SDS011;62585;49.706;18.216;2022-11-15T06:58:18;0.10;;;0.10;;
74223;SDS011;62585;49.706;18.216;2022-11-15T07:00:43;0.15;;;0.15;;
74223;SDS011;62585;49.706;18.216;2022-11-15T07:03:09;0.20;;;0.20;;
74223;SDS011;62585;49.706;18.216;2022-11-15T07:05:35;0.10;;;0.10;;
74223;SDS011;62585;49.706;18.216;2022-11-15T07:08:02;0.00;;;0.00;;
74223;SDS011;62585;49.706;18.216;2022-11-15T07:10:28;2.10;;;2.00;;
74223;SDS011;62585;49.706;18.216;2022-11-15T07:12:54;3.22;;;3.03;;
74223;SDS011;62585;49.706;18.216;2022-11-15T07:15:21;2.22;;;2.13;;
74223;SDS011;62585;49.706;18.216;2022-11-15T07:17:49;1.08;;;0.85;;
74223;SDS011;62585;49.706;18.216;2022-11-15T07:20:15;0.15;;;0.15;;
74223;SDS011;62585;49.706;18.216;2022-11-15T07:22:41;0.00;;;0.00;;
74223;SDS011;62585;49.706;18.216;2022-11-15T07:25:08;0.10;;;0.10;;
74223;SDS011;62585;49.706;18.216;2022-11-15T07:27:34;2.05;;;1.95;;
74223;SDS011;62585;49.706;18.216;2022-11-15T07:30:00;1.65;;;1.55;;
74223;SDS011;62585;49.706;18.216;2022-11-15T07:32:27;1.75;;;1.65;;
74223;SDS011;62585;49.706;18.216;2022-11-15T07:34:52;2.65;;;2.42;;
74223;SDS011;62585;49.706;18.216;2022-11-15T07:37:18;2.90;;;1.30;;
74223;SDS011;62585;49.706;18.216;2022-11-15T07:39:44;2.58;;;2.47;;
74223;SDS011;62585;49.706;18.216;2022-11-15T07:42:10;0.30;;;0.30;;
74223;SDS011;62585;49.706;18.216;2022-11-15T07:44:54;4.28;;;1.33;;
74223;SDS011;62585;49.706;18.216;2022-11-15T07:47:19;2.45;;;0.85;;
74223;SDS011;62585;49.706;18.216;2022-11-15T07:49:45;1.27;;;1.17;;
74223;SDS011;62585;49.706;18.216;2022-11-15T07:52:12;0.65;;;0.65;;
74223;SDS011;62585;49.706;18.216;2022-11-15T07:54:38;1.42;;;0.80;;
74223;SDS011;62585;49.706;18.216;2022-11-15T07:57:05;4.40;;;3.95;;
74223;SDS011;62585;49.706;18.216;2022-11-15T07:59:32;1.88;;;1.80;;
74223;SDS011;62585;49.706;18.216;2022-11-15T08:01:58;1.33;;;1.33;;
74223;SDS011;62585;49.706;18.216;2022-11-15T08:04:23;0.55;;;0.55;;
74223;SDS011;62585;49.706;18.216;2022-11-15T08:06:49;1.08;;;0.43;;
74223;SDS011;62585;49.706;18.216;2022-11-15T08:09:15;2.17;;;0.93;;
74223;SDS011;62585;49.706;18.216;2022-11-15T08:11:41;4.38;;;1.65;;
74223;SDS011;62585;49.706;18.216;2022-11-15T08:14:07;0.00;;;0.00;;
74223;SDS011;62585;49.706;18.216;2022-11-15T08:16:32;0.98;;;0.52;;
74223;SDS011;62585;49.706;18.216;2022-11-15T08:18:58;0.10;;;0.10;;
74223;SDS011;62585;49.706;18.216;2022-11-15T08:21:24;0.57;;;0.57;;
74223;SDS011;62585;49.706;18.216;2022-11-15T08:23:49;1.08;;;1.08;;
74223;SDS011;62585;49.706;18.216;2022-11-15T08:26:15;1.40;;;1.30;;
74223;SDS011;62585;49.706;18.216;2022-11-15T08:28:41;4.07;;;3.70;;
74223;SDS011;62585;49.706;18.216;2022-11-15T08:31:12;2.75;;;1.05;;
74223;SDS011;62585;49.706;18.216;2022-11-15T08:33:39;0.65;;;0.65;;
74223;SDS011;62585;49.706;18.216;2022-11-15T08:36:05;0.10;;;0.10;;
74223;SDS011;62585;49.706;18.216;2022-11-15T08:38:31;0.80;;;0.80;;
74223;SDS011;62585;49.706;18.216;2022-11-15T08:41:04;2.38;;;2.28;;
74223;SDS011;62585;49.706;18.216;2022-11-15T08:43:31;0.38;;;0.38;;
74223;SDS011;62585;49.706;18.216;2022-11-15T08:45:57;0.10;;;0.10;;
74223;SDS011;62585;49.706;18.216;2022-11-15T08:48:23;0.08;;;0.08;;
74223;SDS011;62585;49.706;18.216;2022-11-15T08:50:53;3.03;;;2.33;;
74223;SDS011;62585;49.706;18.216;2022-11-15T08:53:22;0.20;;;0.20;;
74223;SDS011;62585;49.706;18.216;2022-11-15T08:55:48;0.45;;;0.45;;
74223;SDS011;62585;49.706;18.216;2022-11-15T08:58:13;1.98;;;0.63;;
74223;SDS011;62585;49.706;18.216;2022-11-15T09:00:39;2.40;;;2.20;;
74223;SDS011;62585;49.706;18.216;2022-11-15T09:03:05;0.73;;;0.73;;
74223;SDS011;62585;49.706;18.216;2022-11-15T09:07:57;3.78;;;3.42;;
74223;SDS011;62585;49.706;18.216;2022-11-15T09:10:23;0.10;;;0.10;;
74223;SDS011;62585;49.706;18.216;2022-11-15T09:12:49;0.10;;;0.10;;
74223;SDS011;62585;49.706;18.216;2022-11-15T09:15:16;0.15;;;0.15;;
74223;SDS011;62585;49.706;18.216;2022-11-15T09:17:42;0.10;;;0.10;;
74223;SDS011;62585;49.706;18.216;2022-11-15T09:20:08;0.10;;;0.10;;
74223;SDS011;62585;49.706;18.216;2022-11-15T09:22:34;2.35;;;1.75;;
74223;SDS011;62585;49.706;18.216;2022-11-15T09:25:02;0.98;;;0.98;;
74223;SDS011;62585;49.706;18.216;2022-11-15T09:27:29;1.67;;;1.00;;
74223;SDS011;62585;49.706;18.216;2022-11-15T09:29:55;0.43;;;0.43;;
74223;SDS011;62585;49.706;18.216;2022-11-15T09:32:20;0.90;;;0.43;;
74223;SDS011;62585;49.706;18.216;2022-11-15T09:34:51;0.40;;;0.40;;
74223;SDS011;62585;49.706;18.216;2022-11-15T09:37:17;0.35;;;0.35;;
74223;SDS011;62585;49.706;18.216;2022-11-15T09:39:45;0.10;;;0.10;;
74223;SDS011;62585;49.706;18.216;2022-11-15T09:42:23;1.45;;;1.27;;
74223;SDS011;62585;49.706;18.216;2022-11-15T09:45:05;0.47;;;0.20;;
74223;SDS011;62585;49.706;18.216;2022-11-15T09:47:51;3.90;;;3.60;;
74223;SDS011;62585;49.706;18.216;2022-11-15T09:50:34;8.02;;;6.50;;
74223;SDS011;62585;49.706;18.216;2022-11-15T09:53:13;1.17;;;1.13;;
74223;SDS011;62585;49.706;18.216;2022-11-15T09:55:54;6.13;;;1.08;;
74223;SDS011;62585;49.706;18.216;2022-11-15T10:01:07;2.35;;;2.17;;
74223;SDS011;62585;49.706;18.216;2022-11-15T10:03:42;4.90;;;3.13;;
74223;SDS011;62585;49.706;18.216;2022-11-15T10:06:08;2.08;;;1.45;;
74223;SDS011;62585;49.706;18.216;2022-11-15T10:08:50;2.45;;;1.30;;
74223;SDS011;62585;49.706;18.216;2022-11-15T10:11:18;0.77;;;0.77;;
74223;SDS011;62585;49.706;18.216;2022-11-15T10:13:46;3.38;;;2.88;;
74223;SDS011;62585;49.706;18.216;2022-11-15T10:24:26;0.43;;;0.43;;
74223;SDS011;62585;49.706;18.216;2022-11-15T10:26:54;0.98;;;0.98;;
74223;SDS011;62585;49.706;18.216;2022-11-15T10:31:47;4.20;;;2.00;;
74223;SDS011;62585;49.706;18.216;2022-11-15T10:34:15;2.55;;;1.88;;
74223;SDS011;62585;49.706;18.216;2022-11-15T10:36:57;3.85;;;3.55;;
74223;SDS011;62585;49.706;18.216;2022-11-15T10:39:23;0.10;;;0.10;;
74223;SDS011;62585;49.706;18.216;2022-11-15T10:41:50;1.48;;;1.48;;
74223;SDS011;62585;49.706;18.216;2022-11-15T10:46:43;1.55;;;1.15;;
74223;SDS011;62585;49.706;18.216;2022-11-15T10:49:14;4.03;;;2.65;;
74223;SDS011;62585;49.706;18.216;2022-11-15T10:51:41;0.77;;;0.77;;
74223;SDS011;62585;49.706;18.216;2022-11-15T10:54:11;3.20;;;1.10;;
74223;SDS011;62585;49.706;18.216;2022-11-15T10:59:07;0.28;;;0.28;;
74223;SDS011;62585;49.706;18.216;2022-11-15T11:01:47;0.52;;;0.50;;
74223;SDS011;62585;49.706;18.216;2022-11-15T11:04:13;0.00;;;0.00;;
74223;SDS011;62585;49.706;18.216;2022-11-15T11:06:52;0.45;;;0.40;;
74223;SDS011;62585;49.706;18.216;2022-11-15T11:09:36;0.10;;;0.10;;
74223;SDS011;62585;49.706;18.216;2022-11-15T11:12:04;0.10;;;0.10;;
74223;SDS011;62585;49.706;18.216;2022-11-15T11:14:35;0.08;;;0.08;;
74223;SDS011;62585;49.706;18.216;2022-11-15T11:25:29;0.20;;;0.20;;
74223;SDS011;62585;49.706;18.216;2022-11-15T11:31:04;0.80;;;0.75;;
74223;SDS011;62585;49.706;18.216;2022-11-15T11:34:03;0.10;;;0.10;;
74223;SDS011;62585;49.706;18.216;2022-11-15T11:39:59;2.40;;;0.85;;
74223;SDS011;62585;49.706;18.216;2022-11-15T11:42:51;0.70;;;0.70;;
74223;SDS011;62585;49.706;18.216;2022-11-15T11:51:02;1.65;;;1.13;;
74223;SDS011;62585;49.706;18.216;2022-11-15T11:53:50;1.55;;;1.45;;
74223;SDS011;62585;49.706;18.216;2022-11-15T11:58:54;3.40;;;1.67;;
74223;SDS011;62585;49.706;18.216;2022-11-15T12:04:05;9.18;;;5.40;;
74223;SDS011;62585;49.706;18.216;2022-11-15T12:09:28;5.13;;;4.38;;
74223;SDS011;62585;49.706;18.216;2022-11-15T12:17:03;3.53;;;2.70;;
74223;SDS011;62585;49.706;18.216;2022-11-15T12:19:30;2.83;;;2.72;;
74223;SDS011;62585;49.706;18.216;2022-11-15T12:22:01;3.70;;;0.68;;
74223;SDS011;62585;49.706;18.216;2022-11-15T12:24:34;7.30;;;3.30;;
74223;SDS011;62585;49.706;18.216;2022-11-15T12:30:09;8.65;;;5.00;;
74223;SDS011;62585;49.706;18.216;2022-11-15T12:32:39;4.95;;;2.97;;
74223;SDS011;62585;49.706;18.216;2022-11-15T12:35:56;1.02;;;1.00;;
74223;SDS011;62585;49.706;18.216;2022-11-15T12:38:11;3.78;;;3.13;;
74223;SDS011;62585;49.706;18.216;2022-11-15T12:40:38;4.40;;;4.20;;
74223;SDS011;62585;49.706;18.216;2022-11-15T12:43:43;3.20;;;2.20;;
74223;SDS011;62585;49.706;18.216;2022-11-15T12:48:50;2.00;;;1.40;;
74223;SDS011;62585;49.706;18.216;2022-11-15T12:59:55;3.30;;;2.20;;
74223;SDS011;62585;49.706;18.216;2022-11-15T13:05:19;1.45;;;1.38;;
74223;SDS011;62585;49.706;18.216;2022-11-15T13:17:40;8.10;;;3.92;;
74223;SDS011;62585;49.706;18.216;2022-11-15T13:28:02;5.68;;;3.13;;
74223;SDS011;62585;49.706;18.216;2022-11-15T13:30:36;0.10;;;0.10;;
74223;SDS011;62585;49.706;18.216;2022-11-15T13:33:08;2.15;;;2.15;;
74223;SDS011;62585;49.706;18.216;2022-11-15T13:35:40;5.32;;;3.13;;
74223;SDS011;62585;49.706;18.216;2022-11-15T13:38:12;25.17;;;11.70;;
74223;SDS011;62585;49.706;18.216;2022-11-15T13:41:22;29.92;;;13.43;;
74223;SDS011;62585;49.706;18.216;2022-11-15T13:43:50;22.02;;;11.65;;
74223;SDS011;62585;49.706;18.216;2022-11-15T13:46:21;25.30;;;11.80;;
74223;SDS011;62585;49.706;18.216;2022-11-15T13:49:31;20.15;;;12.43;;
74223;SDS011;62585;49.706;18.216;2022-11-15T13:56:37;26.02;;;12.65;;
74223;SDS011;62585;49.706;18.216;2022-11-15T13:59:28;22.25;;;11.70;;
74223;SDS011;62585;49.706;18.216;2022-11-15T14:02:03;20.98;;;12.00;;
74223;SDS011;62585;49.706;18.216;2022-11-15T14:04:47;24.65;;;11.48;;
74223;SDS011;62585;49.706;18.216;2022-11-15T14:07:19;26.70;;;12.80;;
74223;SDS011;62585;49.706;18.216;2022-11-15T14:09:47;21.33;;;10.18;;
74223;SDS011;62585;49.706;18.216;2022-11-15T14:12:33;25.30;;;11.45;;
74223;SDS011;62585;49.706;18.216;2022-11-15T14:15:17;25.58;;;13.02;;
74223;SDS011;62585;49.706;18.216;2022-11-15T14:18:04;23.27;;;12.75;;
74223;SDS011;62585;49.706;18.216;2022-11-15T14:20:37;23.77;;;12.07;;
74223;SDS011;62585;49.706;18.216;2022-11-15T14:23:05;26.42;;;12.55;;
74223;SDS011;62585;49.706;18.216;2022-11-15T14:25:53;23.77;;;12.77;;
74223;SDS011;62585;49.706;18.216;2022-11-15T14:30:50;25.58;;;12.82;;
74223;SDS011;62585;49.706;18.216;2022-11-15T14:36:05;22.05;;;12.13;;
74223;SDS011;62585;49.706;18.216;2022-11-15T14:38:38;22.08;;;11.15;;
74223;SDS011;62585;49.706;18.216;2022-11-15T14:41:04;24.77;;;11.75;;
74223;SDS011;62585;49.706;18.216;2022-11-15T14:43:31;26.38;;;12.70;;
74223;SDS011;62585;49.706;18.216;2022-11-15T14:45:57;24.02;;;12.88;;
74223;SDS011;62585;49.706;18.216;2022-11-15T14:48:22;26.63;;;12.00;;
74223;SDS011;62585;49.706;18.216;2022-11-15T14:50:48;26.10;;;12.85;;
74223;SDS011;62585;49.706;18.216;2022-11-15T14:53:16;21.95;;;12.10;;
74223;SDS011;62585;49.706;18.216;2022-11-15T14:55:42;21.92;;;11.07;;
74223;SDS011;62585;49.706;18.216;2022-11-15T14:58:09;23.25;;;11.07;;
74223;SDS011;62585;49.706;18.216;2022-11-15T15:00:38;23.65;;;11.75;;
74223;SDS011;62585;49.706;18.216;2022-11-15T15:03:05;22.83;;;10.80;;
74223;SDS011;62585;49.706;18.216;2022-11-15T15:05:35;21.77;;;10.60;;
74223;SDS011;62585;49.706;18.216;2022-11-15T15:08:03;20.95;;;11.77;;
74223;SDS011;62585;49.706;18.216;2022-11-15T15:10:33;21.70;;;10.98;;
74223;SDS011;62585;49.706;18.216;2022-11-15T15:13:02;44.53;;;16.42;;
74223;SDS011;62585;49.706;18.216;2022-11-15T15:15:33;36.42;;;17.73;;
74223;SDS011;62585;49.706;18.216;2022-11-15T15:18:01;47.08;;;19.40;;
74223;SDS011;62585;49.706;18.216;2022-11-15T15:20:27;41.75;;;17.27;;
74223;SDS011;62585;49.706;18.216;2022-11-15T15:22:54;41.55;;;16.60;;
74223;SDS011;62585;49.706;18.216;2022-11-15T15:25:27;29.33;;;14.02;;
74223;SDS011;62585;49.706;18.216;2022-11-15T15:27:54;26.02;;;13.10;;
74223;SDS011;62585;49.706;18.216;2022-11-15T15:30:20;29.40;;;14.88;;
74223;SDS011;62585;49.706;18.216;2022-11-15T15:32:51;27.33;;;14.90;;
74223;SDS011;62585;49.706;18.216;2022-11-15T15:35:16;30.58;;;16.35;;
74223;SDS011;62585;49.706;18.216;2022-11-15T15:37:44;28.85;;;15.70;;
74223;SDS011;62585;49.706;18.216;2022-11-15T15:40:14;30.85;;;16.92;;
74223;SDS011;62585;49.706;18.216;2022-11-15T15:42:45;31.13;;;16.60;;
74223;SDS011;62585;49.706;18.216;2022-11-15T15:45:13;34.85;;;17.17;;
74223;SDS011;62585;49.706;18.216;2022-11-15T15:47:40;35.10;;;16.73;;
74223;SDS011;62585;49.706;18.216;2022-11-15T15:52:55;30.70;;;16.63;;
74223;SDS011;62585;49.706;18.216;2022-11-15T15:55:22;31.08;;;16.63;;
74223;SDS011;62585;49.706;18.216;2022-11-15T15:57:48;31.67;;;14.93;;
74223;SDS011;62585;49.706;18.216;2022-11-15T16:00:15;27.00;;;14.40;;
74223;SDS011;62585;49.706;18.216;2022-11-15T16:02:41;29.55;;;14.75;;
74223;SDS011;62585;49.706;18.216;2022-11-15T16:05:08;27.55;;;14.13;;
74223;SDS011;62585;49.706;18.216;2022-11-15T16:07:35;26.33;;;13.68;;
74223;SDS011;62585;49.706;18.216;2022-11-15T16:10:01;29.17;;;13.30;;
74223;SDS011;62585;49.706;18.216;2022-11-15T16:12:38;28.88;;;15.70;;
74223;SDS011;62585;49.706;18.216;2022-11-15T16:15:04;19.75;;;10.68;;
74223;SDS011;62585;49.706;18.216;2022-11-15T16:17:31;24.42;;;13.50;;
74223;SDS011;62585;49.706;18.216;2022-11-15T16:20:00;27.00;;;14.60;;
74223;SDS011;62585;49.706;18.216;2022-11-15T16:22:26;25.40;;;13.60;;
74223;SDS011;62585;49.706;18.216;2022-11-15T16:24:54;30.55;;;14.88;;
74223;SDS011;62585;49.706;18.216;2022-11-15T16:27:21;28.90;;;16.00;;
74223;SDS011;62585;49.706;18.216;2022-11-15T16:29:47;35.72;;;17.80;;
74223;SDS011;62585;49.706;18.216;2022-11-15T16:32:14;36.88;;;17.42;;
74223;SDS011;62585;49.706;18.216;2022-11-15T16:34:40;33.25;;;16.02;;
74223;SDS011;62585;49.706;18.216;2022-11-15T16:37:22;39.00;;;19.55;;
74223;SDS011;62585;49.706;18.216;2022-11-15T16:39:50;41.13;;;19.73;;
74223;SDS011;62585;49.706;18.216;2022-11-15T16:42:16;33.40;;;16.90;;
74223;SDS011;62585;49.706;18.216;2022-11-15T16:44:42;33.30;;;18.70;;
74223;SDS011;62585;49.706;18.216;2022-11-15T16:47:13;51.28;;;22.48;;
74223;SDS011;62585;49.706;18.216;2022-11-15T16:49:42;48.00;;;24.10;;
74223;SDS011;62585;49.706;18.216;2022-11-15T16:54:34;38.80;;;21.45;;
74223;SDS011;62585;49.706;18.216;2022-11-15T16:57:00;50.40;;;26.15;;
74223;SDS011;62585;49.706;18.216;2022-11-15T16:59:26;64.43;;;27.80;;
74223;SDS011;62585;49.706;18.216;2022-11-15T17:01:52;75.30;;;36.47;;
74223;SDS011;62585;49.706;18.216;2022-11-15T17:04:18;60.47;;;27.55;;
74223;SDS011;62585;49.706;18.216;2022-11-15T17:06:47;44.20;;;22.58;;
74223;SDS011;62585;49.706;18.216;2022-11-15T17:09:14;42.47;;;19.58;;